Airfield :
LOGIN :

Register | Disclaimer

   EN    FR    IT 

 










Legend :    VFR   Marginal VFR   IFR   Intensive IFR   Very Intensive IFR
Visi :
Ceiling :
>= 8 km
>= 3000ft
5 to 8 km
1000 to 3000 ft
1500m to 5 km
500 to 1000 ft
800 to 1500m
200 to 500 ft
< 800m
< 200 ft
Symbols :   Thunderstorms  Fog  Heavy snow  Heavy precipitations  Wind > 20 kt
SIGMETs :     Misc.  Thunderstorms  Icing  Turbulence  Mountain Waves  Volcanic Ashes






- Airport Elevation : 101 ft
- IATA code : HAD


ESMT - Halmstad

CURRENT METAR :
  • 272120Z 07004KT 9999 SCT025 BKN036 00/M04 Q0999

EXPIRED METARs :
  • 272050Z 08002KT 9999 SCT040 00/M04 Q0999
  • 272020Z 07004KT CAVOK 00/M04 Q0998
  • 271950Z 11004KT CAVOK 01/M04 Q0998
  • 271920Z 10005KT CAVOK 00/M04 Q0998
  • 271850Z 07004KT 9999 FEW031 BKN053 M00/M04 Q0998

TAF TAF ESMT
Valid from the 27 at 21:00 until the 28 at 00:00 UTC


272008Z 2721/2724 10004KT 9999 BKN045



MET'MAP, your aeronautical weather chart ! - Copyright ORBIFLY December 2007 - Disclaimer

ORBIFLY MET'MAP TEAM :

Programming & Development : Alexandra Zaïnal
Concept & original design : Baudouin d'Aumeries
Assistance for programming : Marc-Olivier Méhu
Technical & hardware support : Manuel Goepfert

Contact : metmap@orbifly.com




SOURCES & CREDITS :

   NOAA